Terminal Aerodrome Forecast
Issued by NWS Northern Indiana

Home | Current Version | Previous Version | Graphics & Text | Print | Product List | Glossary On
Versions: 1 2 3 4 5 6 7 8 9 10 11 12 13 14 15 16
000
FTUS43 KIWX 291137
TAFFWA
TAF
KFWA 291137Z 2912/3012 23006KT P6SM SCT100
     FM291700 26014G24KT P6SM SCT060
     FM300300 25006KT P6SM FEW060=

USA.gov is the U.S. government's official web portal to all federal, state and local government web resources and services.